sensor_id;sensor_type;location;lat;lon;timestamp;temperature;humidity
22153;DHT22;11242;50.536;12.688;2024-01-16T00:00:33;-1.70;99.90
22153;DHT22;11242;50.536;12.688;2024-01-16T00:02:59;-1.80;99.90
22153;DHT22;11242;50.536;12.688;2024-01-16T00:05:25;-1.80;99.90
22153;DHT22;11242;50.536;12.688;2024-01-16T00:07:51;-1.80;99.90
22153;DHT22;11242;50.536;12.688;2024-01-16T00:10:16;-1.70;99.90
22153;DHT22;11242;50.536;12.688;2024-01-16T00:12:42;-1.70;99.90
22153;DHT22;11242;50.536;12.688;2024-01-16T00:15:09;-1.70;99.90
22153;DHT22;11242;50.536;12.688;2024-01-16T00:17:35;-1.80;99.90
22153;DHT22;11242;50.536;12.688;2024-01-16T00:20:00;-1.80;99.90
22153;DHT22;11242;50.536;12.688;2024-01-16T00:22:27;-1.80;99.90
22153;DHT22;11242;50.536;12.688;2024-01-16T00:24:52;-1.80;99.90
22153;DHT22;11242;50.536;12.688;2024-01-16T00:27:18;-1.80;99.90
22153;DHT22;11242;50.536;12.688;2024-01-16T00:29:44;-1.70;99.90
22153;DHT22;11242;50.536;12.688;2024-01-16T00:32:09;-1.70;99.90
22153;DHT22;11242;50.536;12.688;2024-01-16T00:34:35;-1.70;99.90
22153;DHT22;11242;50.536;12.688;2024-01-16T00:37:00;-1.70;99.90
22153;DHT22;11242;50.536;12.688;2024-01-16T00:39:26;-1.70;99.90
22153;DHT22;11242;50.536;12.688;2024-01-16T00:41:51;-1.70;99.90
22153;DHT22;11242;50.536;12.688;2024-01-16T00:44:17;-1.70;99.90
22153;DHT22;11242;50.536;12.688;2024-01-16T00:46:42;-1.70;99.90
22153;DHT22;11242;50.536;12.688;2024-01-16T00:49:08;-1.60;99.90
22153;DHT22;11242;50.536;12.688;2024-01-16T00:51:34;-1.70;99.90
22153;DHT22;11242;50.536;12.688;2024-01-16T00:54:00;-1.70;99.90
22153;DHT22;11242;50.536;12.688;2024-01-16T00:56:26;-1.70;99.90
22153;DHT22;11242;50.536;12.688;2024-01-16T00:58:53;-1.70;99.90
22153;DHT22;11242;50.536;12.688;2024-01-16T01:01:19;-1.60;99.90
22153;DHT22;11242;50.536;12.688;2024-01-16T01:03:45;-1.60;99.90
22153;DHT22;11242;50.536;12.688;2024-01-16T01:06:11;-1.70;99.90
22153;DHT22;11242;50.536;12.688;2024-01-16T01:08:37;-1.60;99.90
22153;DHT22;11242;50.536;12.688;2024-01-16T01:11:02;-1.70;99.90
22153;DHT22;11242;50.536;12.688;2024-01-16T01:13:28;-1.70;99.90
22153;DHT22;11242;50.536;12.688;2024-01-16T01:15:54;-1.70;99.90
22153;DHT22;11242;50.536;12.688;2024-01-16T01:18:19;-1.70;99.90
22153;DHT22;11242;50.536;12.688;2024-01-16T01:20:45;-1.70;99.90
22153;DHT22;11242;50.536;12.688;2024-01-16T01:23:10;-1.70;99.90
22153;DHT22;11242;50.536;12.688;2024-01-16T01:25:36;-1.70;99.90
22153;DHT22;11242;50.536;12.688;2024-01-16T01:28:02;-1.70;99.90
22153;DHT22;11242;50.536;12.688;2024-01-16T01:30:27;-1.70;99.90
22153;DHT22;11242;50.536;12.688;2024-01-16T01:32:53;-1.70;99.90
22153;DHT22;11242;50.536;12.688;2024-01-16T01:35:18;-1.70;99.90
22153;DHT22;11242;50.536;12.688;2024-01-16T01:37:47;-1.70;99.90
22153;DHT22;11242;50.536;12.688;2024-01-16T01:40:13;-1.70;99.90
22153;DHT22;11242;50.536;12.688;2024-01-16T01:42:41;-1.70;99.90
22153;DHT22;11242;50.536;12.688;2024-01-16T01:45:09;-1.70;99.90
22153;DHT22;11242;50.536;12.688;2024-01-16T01:47:35;-1.70;99.90
22153;DHT22;11242;50.536;12.688;2024-01-16T01:50:01;-1.70;99.90
22153;DHT22;11242;50.536;12.688;2024-01-16T01:52:31;-1.70;99.90
22153;DHT22;11242;50.536;12.688;2024-01-16T01:54:57;-1.70;99.90
22153;DHT22;11242;50.536;12.688;2024-01-16T01:57:23;-1.80;99.90
22153;DHT22;11242;50.536;12.688;2024-01-16T01:59:50;-1.70;99.90
22153;DHT22;11242;50.536;12.688;2024-01-16T02:02:17;-1.70;99.90
22153;DHT22;11242;50.536;12.688;2024-01-16T02:04:44;-1.70;99.90
22153;DHT22;11242;50.536;12.688;2024-01-16T02:07:12;-1.60;99.90
22153;DHT22;11242;50.536;12.688;2024-01-16T02:09:37;-1.70;99.90
22153;DHT22;11242;50.536;12.688;2024-01-16T02:12:04;-1.60;99.90
22153;DHT22;11242;50.536;12.688;2024-01-16T02:14:30;-1.70;99.90
22153;DHT22;11242;50.536;12.688;2024-01-16T02:16:55;-1.70;99.90
22153;DHT22;11242;50.536;12.688;2024-01-16T02:19:21;-1.70;99.90
22153;DHT22;11242;50.536;12.688;2024-01-16T02:21:47;-1.70;99.90
22153;DHT22;11242;50.536;12.688;2024-01-16T02:24:17;-1.70;99.90
22153;DHT22;11242;50.536;12.688;2024-01-16T02:26:43;-1.70;99.90
22153;DHT22;11242;50.536;12.688;2024-01-16T02:29:09;-1.60;99.90
22153;DHT22;11242;50.536;12.688;2024-01-16T02:31:34;-1.70;99.90
22153;DHT22;11242;50.536;12.688;2024-01-16T02:34:00;-1.70;99.90
22153;DHT22;11242;50.536;12.688;2024-01-16T02:36:27;-1.70;99.90
22153;DHT22;11242;50.536;12.688;2024-01-16T02:38:53;-1.70;99.90
22153;DHT22;11242;50.536;12.688;2024-01-16T02:41:18;-1.70;99.90
22153;DHT22;11242;50.536;12.688;2024-01-16T02:43:44;-1.70;99.90
22153;DHT22;11242;50.536;12.688;2024-01-16T02:46:10;-1.70;99.90
22153;DHT22;11242;50.536;12.688;2024-01-16T02:48:36;-1.70;99.90
22153;DHT22;11242;50.536;12.688;2024-01-16T02:51:02;-1.70;99.90
22153;DHT22;11242;50.536;12.688;2024-01-16T02:53:29;-1.70;99.90
22153;DHT22;11242;50.536;12.688;2024-01-16T02:55:55;-1.70;99.90
22153;DHT22;11242;50.536;12.688;2024-01-16T02:58:21;-1.70;99.90
22153;DHT22;11242;50.536;12.688;2024-01-16T03:00:49;-1.60;99.90
22153;DHT22;11242;50.536;12.688;2024-01-16T03:03:15;-1.60;99.90
22153;DHT22;11242;50.536;12.688;2024-01-16T03:05:40;-1.60;99.90
22153;DHT22;11242;50.536;12.688;2024-01-16T03:08:07;-1.60;99.90
22153;DHT22;11242;50.536;12.688;2024-01-16T03:10:32;-1.60;99.90
22153;DHT22;11242;50.536;12.688;2024-01-16T03:12:58;-1.60;99.90
22153;DHT22;11242;50.536;12.688;2024-01-16T03:15:24;-1.60;99.90
22153;DHT22;11242;50.536;12.688;2024-01-16T03:17:50;-1.60;99.90
22153;DHT22;11242;50.536;12.688;2024-01-16T03:20:16;-1.60;99.90
22153;DHT22;11242;50.536;12.688;2024-01-16T03:22:42;-1.60;99.90
22153;DHT22;11242;50.536;12.688;2024-01-16T03:25:09;-1.60;99.90
22153;DHT22;11242;50.536;12.688;2024-01-16T03:27:34;-1.60;99.90
22153;DHT22;11242;50.536;12.688;2024-01-16T03:30:01;-1.60;99.90
22153;DHT22;11242;50.536;12.688;2024-01-16T03:32:27;-1.60;99.90
22153;DHT22;11242;50.536;12.688;2024-01-16T03:34:52;-1.60;99.90
22153;DHT22;11242;50.536;12.688;2024-01-16T03:37:18;-1.60;99.90
22153;DHT22;11242;50.536;12.688;2024-01-16T03:39:44;-1.60;99.90
22153;DHT22;11242;50.536;12.688;2024-01-16T03:42:10;-1.60;99.90
22153;DHT22;11242;50.536;12.688;2024-01-16T03:44:39;-1.60;99.90
22153;DHT22;11242;50.536;12.688;2024-01-16T03:47:05;-1.60;99.90
22153;DHT22;11242;50.536;12.688;2024-01-16T03:49:31;-1.60;99.90
22153;DHT22;11242;50.536;12.688;2024-01-16T03:51:56;-1.60;99.90
22153;DHT22;11242;50.536;12.688;2024-01-16T03:54:22;-1.60;99.90
22153;DHT22;11242;50.536;12.688;2024-01-16T03:56:47;-1.60;99.90
22153;DHT22;11242;50.536;12.688;2024-01-16T03:59:13;-1.60;99.90
22153;DHT22;11242;50.536;12.688;2024-01-16T04:01:39;-1.60;99.90
22153;DHT22;11242;50.536;12.688;2024-01-16T04:04:04;-1.60;99.90
22153;DHT22;11242;50.536;12.688;2024-01-16T04:06:33;-1.60;99.90
22153;DHT22;11242;50.536;12.688;2024-01-16T04:08:58;-1.60;99.90
22153;DHT22;11242;50.536;12.688;2024-01-16T04:11:24;-1.70;99.90
22153;DHT22;11242;50.536;12.688;2024-01-16T04:13:49;-1.60;99.90
22153;DHT22;11242;50.536;12.688;2024-01-16T04:16:15;-1.60;99.90
22153;DHT22;11242;50.536;12.688;2024-01-16T04:18:42;-1.60;99.90
22153;DHT22;11242;50.536;12.688;2024-01-16T04:21:08;-1.60;99.90
22153;DHT22;11242;50.536;12.688;2024-01-16T04:23:34;-1.60;99.90
22153;DHT22;11242;50.536;12.688;2024-01-16T04:25:59;-1.70;99.90
22153;DHT22;11242;50.536;12.688;2024-01-16T04:28:25;-1.70;99.90
22153;DHT22;11242;50.536;12.688;2024-01-16T04:30:51;-1.70;99.90
22153;DHT22;11242;50.536;12.688;2024-01-16T04:33:17;-1.60;99.90
22153;DHT22;11242;50.536;12.688;2024-01-16T04:35:42;-1.60;99.90
22153;DHT22;11242;50.536;12.688;2024-01-16T04:38:08;-1.70;99.90
22153;DHT22;11242;50.536;12.688;2024-01-16T04:40:34;-1.70;99.90
22153;DHT22;11242;50.536;12.688;2024-01-16T04:43:00;-1.70;99.90
22153;DHT22;11242;50.536;12.688;2024-01-16T04:45:26;-1.80;99.90
22153;DHT22;11242;50.536;12.688;2024-01-16T04:47:51;-1.80;99.90
22153;DHT22;11242;50.536;12.688;2024-01-16T04:50:17;-1.80;99.90
22153;DHT22;11242;50.536;12.688;2024-01-16T04:52:43;-1.80;99.90
22153;DHT22;11242;50.536;12.688;2024-01-16T04:55:09;-1.80;99.90
22153;DHT22;11242;50.536;12.688;2024-01-16T04:57:34;-1.80;99.90
22153;DHT22;11242;50.536;12.688;2024-01-16T05:00:00;-1.80;99.90
22153;DHT22;11242;50.536;12.688;2024-01-16T05:02:25;-1.80;99.90
22153;DHT22;11242;50.536;12.688;2024-01-16T05:04:51;-1.80;99.90
22153;DHT22;11242;50.536;12.688;2024-01-16T05:07:20;-1.80;99.90
22153;DHT22;11242;50.536;12.688;2024-01-16T05:09:46;-1.80;99.90
22153;DHT22;11242;50.536;12.688;2024-01-16T05:12:12;-1.80;99.90
22153;DHT22;11242;50.536;12.688;2024-01-16T05:14:38;-1.80;99.90
22153;DHT22;11242;50.536;12.688;2024-01-16T05:17:04;-1.80;99.90
22153;DHT22;11242;50.536;12.688;2024-01-16T05:19:29;-1.80;99.90
22153;DHT22;11242;50.536;12.688;2024-01-16T05:21:55;-1.80;99.90
22153;DHT22;11242;50.536;12.688;2024-01-16T05:24:20;-1.80;99.90
22153;DHT22;11242;50.536;12.688;2024-01-16T05:26:46;-1.80;99.90
22153;DHT22;11242;50.536;12.688;2024-01-16T05:29:12;-1.80;99.90
22153;DHT22;11242;50.536;12.688;2024-01-16T05:31:43;-1.80;99.90
22153;DHT22;11242;50.536;12.688;2024-01-16T05:34:09;-1.80;99.90
22153;DHT22;11242;50.536;12.688;2024-01-16T05:36:35;-1.80;99.90
22153;DHT22;11242;50.536;12.688;2024-01-16T05:39:01;-1.80;99.90
22153;DHT22;11242;50.536;12.688;2024-01-16T05:41:27;-1.80;99.90
22153;DHT22;11242;50.536;12.688;2024-01-16T05:43:53;-1.80;99.90
22153;DHT22;11242;50.536;12.688;2024-01-16T05:46:19;-1.80;99.90
22153;DHT22;11242;50.536;12.688;2024-01-16T05:48:45;-1.80;99.90
22153;DHT22;11242;50.536;12.688;2024-01-16T05:51:11;-1.80;99.90
22153;DHT22;11242;50.536;12.688;2024-01-16T05:53:37;-1.80;99.90
22153;DHT22;11242;50.536;12.688;2024-01-16T05:56:03;-1.80;99.90
22153;DHT22;11242;50.536;12.688;2024-01-16T05:58:28;-1.80;99.90
22153;DHT22;11242;50.536;12.688;2024-01-16T06:00:54;-1.80;99.90
22153;DHT22;11242;50.536;12.688;2024-01-16T06:03:19;-1.80;99.90
22153;DHT22;11242;50.536;12.688;2024-01-16T06:05:45;-1.80;99.90
22153;DHT22;11242;50.536;12.688;2024-01-16T06:08:10;-1.90;99.90
22153;DHT22;11242;50.536;12.688;2024-01-16T06:10:36;-1.90;99.90
22153;DHT22;11242;50.536;12.688;2024-01-16T06:13:01;-1.90;99.90
22153;DHT22;11242;50.536;12.688;2024-01-16T06:15:27;-1.90;99.90
22153;DHT22;11242;50.536;12.688;2024-01-16T06:17:52;-1.90;99.90
22153;DHT22;11242;50.536;12.688;2024-01-16T06:20:18;-1.80;99.90
22153;DHT22;11242;50.536;12.688;2024-01-16T06:22:44;-1.90;99.90
22153;DHT22;11242;50.536;12.688;2024-01-16T06:25:09;-1.90;99.90
22153;DHT22;11242;50.536;12.688;2024-01-16T06:27:35;-1.80;99.90
22153;DHT22;11242;50.536;12.688;2024-01-16T06:30:00;-1.90;99.90
22153;DHT22;11242;50.536;12.688;2024-01-16T06:32:26;-1.90;99.90
22153;DHT22;11242;50.536;12.688;2024-01-16T06:34:52;-2.00;99.90
22153;DHT22;11242;50.536;12.688;2024-01-16T06:37:17;-2.20;99.90
22153;DHT22;11242;50.536;12.688;2024-01-16T06:39:43;-2.30;99.90
22153;DHT22;11242;50.536;12.688;2024-01-16T06:42:08;-2.40;99.90
22153;DHT22;11242;50.536;12.688;2024-01-16T06:44:34;-2.40;99.90
22153;DHT22;11242;50.536;12.688;2024-01-16T06:47:00;-2.50;99.90
22153;DHT22;11242;50.536;12.688;2024-01-16T06:49:25;-2.40;99.90
22153;DHT22;11242;50.536;12.688;2024-01-16T06:51:51;-2.40;99.90
22153;DHT22;11242;50.536;12.688;2024-01-16T06:54:17;-2.30;99.90
22153;DHT22;11242;50.536;12.688;2024-01-16T06:56:43;-2.30;99.90
22153;DHT22;11242;50.536;12.688;2024-01-16T06:59:08;-2.30;99.90
22153;DHT22;11242;50.536;12.688;2024-01-16T07:01:34;-2.30;99.90
22153;DHT22;11242;50.536;12.688;2024-01-16T07:03:59;-2.30;99.90
22153;DHT22;11242;50.536;12.688;2024-01-16T07:06:25;-2.20;99.90
22153;DHT22;11242;50.536;12.688;2024-01-16T07:08:50;-2.20;99.90
22153;DHT22;11242;50.536;12.688;2024-01-16T07:11:16;-2.30;99.90
22153;DHT22;11242;50.536;12.688;2024-01-16T07:13:41;-2.30;99.90
22153;DHT22;11242;50.536;12.688;2024-01-16T07:16:10;-2.30;99.90
22153;DHT22;11242;50.536;12.688;2024-01-16T07:18:37;-2.30;99.90
22153;DHT22;11242;50.536;12.688;2024-01-16T07:21:03;-2.20;99.90
22153;DHT22;11242;50.536;12.688;2024-01-16T07:23:29;-2.20;99.90
22153;DHT22;11242;50.536;12.688;2024-01-16T07:25:55;-2.20;99.90
22153;DHT22;11242;50.536;12.688;2024-01-16T07:28:21;-2.10;99.90
22153;DHT22;11242;50.536;12.688;2024-01-16T07:30:47;-2.10;99.90
22153;DHT22;11242;50.536;12.688;2024-01-16T07:33:13;-2.10;99.90
22153;DHT22;11242;50.536;12.688;2024-01-16T07:35:38;-2.10;99.90
22153;DHT22;11242;50.536;12.688;2024-01-16T07:38:06;-2.10;99.90
22153;DHT22;11242;50.536;12.688;2024-01-16T07:40:32;-2.10;99.90
22153;DHT22;11242;50.536;12.688;2024-01-16T07:42:57;-2.10;99.90
22153;DHT22;11242;50.536;12.688;2024-01-16T07:45:23;-2.20;99.90
22153;DHT22;11242;50.536;12.688;2024-01-16T07:47:49;-2.20;99.90
22153;DHT22;11242;50.536;12.688;2024-01-16T07:50:14;-2.10;99.90
22153;DHT22;11242;50.536;12.688;2024-01-16T07:52:40;-2.10;99.90
22153;DHT22;11242;50.536;12.688;2024-01-16T07:55:06;-2.20;99.90
22153;DHT22;11242;50.536;12.688;2024-01-16T07:57:32;-2.30;99.90
22153;DHT22;11242;50.536;12.688;2024-01-16T07:59:58;-2.30;99.90
22153;DHT22;11242;50.536;12.688;2024-01-16T08:02:31;-2.30;99.90
22153;DHT22;11242;50.536;12.688;2024-01-16T08:04:56;-2.10;99.90
22153;DHT22;11242;50.536;12.688;2024-01-16T08:07:22;-2.10;99.90
22153;DHT22;11242;50.536;12.688;2024-01-16T08:09:48;-2.10;99.90
22153;DHT22;11242;50.536;12.688;2024-01-16T08:12:13;-2.10;99.90
22153;DHT22;11242;50.536;12.688;2024-01-16T08:14:39;-2.10;99.90
22153;DHT22;11242;50.536;12.688;2024-01-16T08:17:04;-2.10;99.90
22153;DHT22;11242;50.536;12.688;2024-01-16T08:19:30;-2.00;99.90
22153;DHT22;11242;50.536;12.688;2024-01-16T08:21:56;-2.00;99.90
22153;DHT22;11242;50.536;12.688;2024-01-16T08:24:22;-1.90;99.90
22153;DHT22;11242;50.536;12.688;2024-01-16T08:26:48;-1.90;99.90
22153;DHT22;11242;50.536;12.688;2024-01-16T08:29:13;-1.90;99.90
22153;DHT22;11242;50.536;12.688;2024-01-16T08:31:40;-1.80;99.90
22153;DHT22;11242;50.536;12.688;2024-01-16T08:34:05;-1.80;99.90
22153;DHT22;11242;50.536;12.688;2024-01-16T08:36:31;-1.80;99.90
22153;DHT22;11242;50.536;12.688;2024-01-16T08:38:56;-1.70;99.90
22153;DHT22;11242;50.536;12.688;2024-01-16T08:41:22;-1.70;99.90
22153;DHT22;11242;50.536;12.688;2024-01-16T08:43:47;-1.70;99.90
22153;DHT22;11242;50.536;12.688;2024-01-16T08:46:13;-1.70;99.90
22153;DHT22;11242;50.536;12.688;2024-01-16T08:48:39;-1.60;99.90
22153;DHT22;11242;50.536;12.688;2024-01-16T08:51:07;-1.40;99.90
22153;DHT22;11242;50.536;12.688;2024-01-16T08:53:34;-1.40;99.90
22153;DHT22;11242;50.536;12.688;2024-01-16T08:56:00;-1.50;99.90
22153;DHT22;11242;50.536;12.688;2024-01-16T08:58:25;-1.40;99.90
22153;DHT22;11242;50.536;12.688;2024-01-16T09:00:52;-1.20;99.90
22153;DHT22;11242;50.536;12.688;2024-01-16T09:03:17;-1.10;99.90
22153;DHT22;11242;50.536;12.688;2024-01-16T09:05:43;-1.00;99.90
22153;DHT22;11242;50.536;12.688;2024-01-16T09:08:09;-0.90;99.90
22153;DHT22;11242;50.536;12.688;2024-01-16T09:10:34;-0.90;99.90
22153;DHT22;11242;50.536;12.688;2024-01-16T09:13:00;-0.90;99.90
22153;DHT22;11242;50.536;12.688;2024-01-16T09:15:25;-0.80;99.90
22153;DHT22;11242;50.536;12.688;2024-01-16T09:17:51;-0.60;99.90
22153;DHT22;11242;50.536;12.688;2024-01-16T09:20:17;-0.70;99.90
22153;DHT22;11242;50.536;12.688;2024-01-16T09:22:42;-0.60;99.90
22153;DHT22;11242;50.536;12.688;2024-01-16T09:25:08;-0.60;99.90
22153;DHT22;11242;50.536;12.688;2024-01-16T09:27:33;-0.70;99.90
22153;DHT22;11242;50.536;12.688;2024-01-16T09:29:59;-0.70;99.90
22153;DHT22;11242;50.536;12.688;2024-01-16T09:32:25;-0.60;99.90
22153;DHT22;11242;50.536;12.688;2024-01-16T09:34:50;-0.70;99.90
22153;DHT22;11242;50.536;12.688;2024-01-16T09:37:16;-0.70;99.90
22153;DHT22;11242;50.536;12.688;2024-01-16T09:39:41;-0.60;99.90
22153;DHT22;11242;50.536;12.688;2024-01-16T09:42:08;-0.60;99.90
22153;DHT22;11242;50.536;12.688;2024-01-16T09:44:34;-0.60;99.90
22153;DHT22;11242;50.536;12.688;2024-01-16T09:47:01;-0.40;99.90
22153;DHT22;11242;50.536;12.688;2024-01-16T09:49:27;-0.30;99.90
22153;DHT22;11242;50.536;12.688;2024-01-16T09:51:54;-0.40;99.90
22153;DHT22;11242;50.536;12.688;2024-01-16T09:54:20;-0.40;99.90
22153;DHT22;11242;50.536;12.688;2024-01-16T09:56:48;-0.30;99.90
22153;DHT22;11242;50.536;12.688;2024-01-16T09:59:17;-0.30;99.90
22153;DHT22;11242;50.536;12.688;2024-01-16T10:01:45;-0.40;99.90
22153;DHT22;11242;50.536;12.688;2024-01-16T10:04:12;-0.30;99.90
22153;DHT22;11242;50.536;12.688;2024-01-16T10:06:39;-0.20;99.90
22153;DHT22;11242;50.536;12.688;2024-01-16T10:09:05;0.00;99.90
22153;DHT22;11242;50.536;12.688;2024-01-16T10:11:33;0.20;99.90
22153;DHT22;11242;50.536;12.688;2024-01-16T10:13:59;0.30;99.90
22153;DHT22;11242;50.536;12.688;2024-01-16T10:16:57;0.30;99.90
22153;DHT22;11242;50.536;12.688;2024-01-16T10:19:29;0.40;99.90
22153;DHT22;11242;50.536;12.688;2024-01-16T10:22:04;0.50;99.90
22153;DHT22;11242;50.536;12.688;2024-01-16T10:24:31;0.50;99.90
22153;DHT22;11242;50.536;12.688;2024-01-16T10:26:59;0.50;99.90
22153;DHT22;11242;50.536;12.688;2024-01-16T10:29:26;0.40;99.90
22153;DHT22;11242;50.536;12.688;2024-01-16T10:31:52;0.50;99.90
22153;DHT22;11242;50.536;12.688;2024-01-16T10:34:21;0.50;99.90
22153;DHT22;11242;50.536;12.688;2024-01-16T10:36:49;0.30;99.90
22153;DHT22;11242;50.536;12.688;2024-01-16T10:39:16;0.40;99.90
22153;DHT22;11242;50.536;12.688;2024-01-16T10:41:41;0.60;99.90
22153;DHT22;11242;50.536;12.688;2024-01-16T10:44:08;0.60;99.90
22153;DHT22;11242;50.536;12.688;2024-01-16T10:46:34;0.60;99.90
22153;DHT22;11242;50.536;12.688;2024-01-16T10:49:02;0.60;99.90
22153;DHT22;11242;50.536;12.688;2024-01-16T10:51:28;0.70;99.90
22153;DHT22;11242;50.536;12.688;2024-01-16T10:54:07;0.70;99.90
22153;DHT22;11242;50.536;12.688;2024-01-16T10:56:36;0.70;99.90
22153;DHT22;11242;50.536;12.688;2024-01-16T11:02:19;0.50;99.90
22153;DHT22;11242;50.536;12.688;2024-01-16T11:04:46;0.60;99.90
22153;DHT22;11242;50.536;12.688;2024-01-16T11:07:13;0.60;99.90
22153;DHT22;11242;50.536;12.688;2024-01-16T11:09:40;0.70;99.90
22153;DHT22;11242;50.536;12.688;2024-01-16T11:12:08;0.80;99.90
22153;DHT22;11242;50.536;12.688;2024-01-16T11:14:35;0.90;99.90
22153;DHT22;11242;50.536;12.688;2024-01-16T11:17:03;0.80;99.90
22153;DHT22;11242;50.536;12.688;2024-01-16T11:19:31;1.00;99.90
22153;DHT22;11242;50.536;12.688;2024-01-16T11:21:58;1.00;99.90
22153;DHT22;11242;50.536;12.688;2024-01-16T11:24:24;1.00;99.90
22153;DHT22;11242;50.536;12.688;2024-01-16T11:26:50;1.10;99.90
22153;DHT22;11242;50.536;12.688;2024-01-16T11:29:34;1.00;99.90
22153;DHT22;11242;50.536;12.688;2024-01-16T11:32:00;1.10;99.90
22153;DHT22;11242;50.536;12.688;2024-01-16T11:37:11;1.10;99.90
22153;DHT22;11242;50.536;12.688;2024-01-16T11:39:38;1.20;99.90
22153;DHT22;11242;50.536;12.688;2024-01-16T11:42:03;1.10;99.90
22153;DHT22;11242;50.536;12.688;2024-01-16T11:44:48;1.00;99.90
22153;DHT22;11242;50.536;12.688;2024-01-16T11:47:20;1.10;99.90
22153;DHT22;11242;50.536;12.688;2024-01-16T11:49:51;1.10;99.90
22153;DHT22;11242;50.536;12.688;2024-01-16T11:52:54;1.00;99.90
22153;DHT22;11242;50.536;12.688;2024-01-16T11:55:34;1.10;99.90
22153;DHT22;11242;50.536;12.688;2024-01-16T12:01:10;1.20;99.90
22153;DHT22;11242;50.536;12.688;2024-01-16T12:03:37;1.40;99.90
22153;DHT22;11242;50.536;12.688;2024-01-16T12:06:03;1.20;99.90
22153;DHT22;11242;50.536;12.688;2024-01-16T12:08:32;1.00;99.90
22153;DHT22;11242;50.536;12.688;2024-01-16T12:10:57;1.00;99.90
22153;DHT22;11242;50.536;12.688;2024-01-16T12:13:24;0.80;99.90
22153;DHT22;11242;50.536;12.688;2024-01-16T12:15:59;0.70;99.90
22153;DHT22;11242;50.536;12.688;2024-01-16T12:18:25;0.70;99.90
22153;DHT22;11242;50.536;12.688;2024-01-16T12:20:51;0.80;99.90
22153;DHT22;11242;50.536;12.688;2024-01-16T12:23:17;0.80;99.90
22153;DHT22;11242;50.536;12.688;2024-01-16T12:25:44;0.70;99.90
22153;DHT22;11242;50.536;12.688;2024-01-16T12:28:09;0.60;99.90
22153;DHT22;11242;50.536;12.688;2024-01-16T12:30:49;0.60;99.90
22153;DHT22;11242;50.536;12.688;2024-01-16T12:33:15;0.70;99.90
22153;DHT22;11242;50.536;12.688;2024-01-16T12:35:43;0.60;99.90
22153;DHT22;11242;50.536;12.688;2024-01-16T12:38:11;0.60;99.90
22153;DHT22;11242;50.536;12.688;2024-01-16T12:40:44;0.50;99.90
22153;DHT22;11242;50.536;12.688;2024-01-16T12:43:10;0.50;99.90
22153;DHT22;11242;50.536;12.688;2024-01-16T12:45:36;0.60;99.90
22153;DHT22;11242;50.536;12.688;2024-01-16T12:48:02;0.60;99.90
22153;DHT22;11242;50.536;12.688;2024-01-16T12:50:30;0.70;99.90
22153;DHT22;11242;50.536;12.688;2024-01-16T12:53:11;0.80;99.90
22153;DHT22;11242;50.536;12.688;2024-01-16T12:55:39;0.80;99.90
22153;DHT22;11242;50.536;12.688;2024-01-16T12:58:17;0.60;99.90
22153;DHT22;11242;50.536;12.688;2024-01-16T13:00:47;0.50;99.90
22153;DHT22;11242;50.536;12.688;2024-01-16T13:03:24;0.40;99.90
22153;DHT22;11242;50.536;12.688;2024-01-16T13:05:58;0.30;99.90
22153;DHT22;11242;50.536;12.688;2024-01-16T13:08:25;0.20;99.90
22153;DHT22;11242;50.536;12.688;2024-01-16T13:11:04;0.10;99.90
22153;DHT22;11242;50.536;12.688;2024-01-16T13:13:30;0.00;99.90
22153;DHT22;11242;50.536;12.688;2024-01-16T13:15:56;0.00;99.90
22153;DHT22;11242;50.536;12.688;2024-01-16T13:18:24;0.00;99.90
22153;DHT22;11242;50.536;12.688;2024-01-16T13:20:51;0.00;99.90
22153;DHT22;11242;50.536;12.688;2024-01-16T13:23:18;0.00;99.90
22153;DHT22;11242;50.536;12.688;2024-01-16T13:25:44;0.00;99.90
22153;DHT22;11242;50.536;12.688;2024-01-16T13:28:17;-0.10;99.90
22153;DHT22;11242;50.536;12.688;2024-01-16T13:30:44;-0.10;99.90
22153;DHT22;11242;50.536;12.688;2024-01-16T13:33:10;-0.20;99.90
22153;DHT22;11242;50.536;12.688;2024-01-16T13:35:39;-0.20;99.90
22153;DHT22;11242;50.536;12.688;2024-01-16T13:38:05;-0.30;99.90
22153;DHT22;11242;50.536;12.688;2024-01-16T13:40:31;-0.40;99.90
22153;DHT22;11242;50.536;12.688;2024-01-16T13:42:57;-0.40;99.90
22153;DHT22;11242;50.536;12.688;2024-01-16T13:45:22;-0.40;99.90
22153;DHT22;11242;50.536;12.688;2024-01-16T13:47:48;-0.40;99.90
22153;DHT22;11242;50.536;12.688;2024-01-16T13:50:14;-0.30;99.90
22153;DHT22;11242;50.536;12.688;2024-01-16T13:52:39;-0.30;99.90
22153;DHT22;11242;50.536;12.688;2024-01-16T13:55:06;-0.30;99.90
22153;DHT22;11242;50.536;12.688;2024-01-16T13:57:32;-0.30;99.90
22153;DHT22;11242;50.536;12.688;2024-01-16T14:00:00;-0.30;99.90
22153;DHT22;11242;50.536;12.688;2024-01-16T14:02:26;-0.30;99.90
22153;DHT22;11242;50.536;12.688;2024-01-16T14:04:51;-0.40;99.90
22153;DHT22;11242;50.536;12.688;2024-01-16T14:07:17;-0.50;99.90
22153;DHT22;11242;50.536;12.688;2024-01-16T14:09:42;-0.60;99.90
22153;DHT22;11242;50.536;12.688;2024-01-16T14:12:08;-0.60;99.90
22153;DHT22;11242;50.536;12.688;2024-01-16T14:14:34;-0.60;99.90
22153;DHT22;11242;50.536;12.688;2024-01-16T14:17:01;-0.60;99.90
22153;DHT22;11242;50.536;12.688;2024-01-16T14:19:27;-0.60;99.90
22153;DHT22;11242;50.536;12.688;2024-01-16T14:21:55;-0.50;99.90
22153;DHT22;11242;50.536;12.688;2024-01-16T14:24:20;-0.50;99.90
22153;DHT22;11242;50.536;12.688;2024-01-16T14:26:46;-0.50;99.90
22153;DHT22;11242;50.536;12.688;2024-01-16T14:29:12;-0.50;99.90
22153;DHT22;11242;50.536;12.688;2024-01-16T14:31:38;-0.50;99.90
22153;DHT22;11242;50.536;12.688;2024-01-16T14:34:10;-0.60;99.90
22153;DHT22;11242;50.536;12.688;2024-01-16T14:36:39;-0.70;99.90
22153;DHT22;11242;50.536;12.688;2024-01-16T14:39:05;-0.70;99.90
22153;DHT22;11242;50.536;12.688;2024-01-16T14:41:30;-0.70;99.90
22153;DHT22;11242;50.536;12.688;2024-01-16T14:43:57;-0.80;99.90
22153;DHT22;11242;50.536;12.688;2024-01-16T14:46:22;-0.80;99.90
22153;DHT22;11242;50.536;12.688;2024-01-16T14:48:48;-0.90;99.90
22153;DHT22;11242;50.536;12.688;2024-01-16T14:51:13;-0.90;99.90
22153;DHT22;11242;50.536;12.688;2024-01-16T14:53:39;-1.00;99.90
22153;DHT22;11242;50.536;12.688;2024-01-16T14:56:05;-1.10;99.90
22153;DHT22;11242;50.536;12.688;2024-01-16T14:58:30;-1.10;99.90
22153;DHT22;11242;50.536;12.688;2024-01-16T15:00:56;-1.10;99.90
22153;DHT22;11242;50.536;12.688;2024-01-16T15:03:25;-1.10;99.90
22153;DHT22;11242;50.536;12.688;2024-01-16T15:05:51;-1.10;99.90
22153;DHT22;11242;50.536;12.688;2024-01-16T15:08:18;-1.20;99.90
22153;DHT22;11242;50.536;12.688;2024-01-16T15:10:44;-1.20;99.90
22153;DHT22;11242;50.536;12.688;2024-01-16T15:13:10;-1.20;99.90
22153;DHT22;11242;50.536;12.688;2024-01-16T15:15:35;-1.30;99.90
22153;DHT22;11242;50.536;12.688;2024-01-16T15:18:02;-1.20;99.90
22153;DHT22;11242;50.536;12.688;2024-01-16T15:20:27;-1.30;99.90
22153;DHT22;11242;50.536;12.688;2024-01-16T15:22:53;-1.30;99.90
22153;DHT22;11242;50.536;12.688;2024-01-16T15:25:19;-1.40;99.90